createdAt,value
2022-10-25T00:03:21.677Z,1.30
2022-10-25T00:05:48.325Z,1.20
2022-10-25T00:08:14.953Z,1.15
2022-10-25T00:10:41.586Z,1.10
2022-10-25T00:13:08.137Z,1.50
2022-10-25T00:15:34.955Z,1.08
2022-10-25T00:18:01.590Z,0.90
2022-10-25T00:20:28.353Z,1.73
2022-10-25T00:22:54.965Z,1.30
2022-10-25T00:25:21.617Z,1.25
2022-10-25T00:27:48.106Z,0.90
2022-10-25T00:30:15.065Z,1.17
2022-10-25T00:32:41.810Z,0.90
2022-10-25T00:35:08.897Z,0.80
2022-10-25T00:37:36.137Z,1.08
2022-10-25T00:40:03.816Z,1.10
2022-10-25T00:42:30.376Z,0.80
2022-10-25T00:45:02.011Z,1.10
2022-10-25T00:47:51.556Z,1.00
2022-10-25T00:50:47.642Z,0.90
2022-10-25T00:53:18.869Z,1.00
2022-10-25T00:55:51.857Z,1.08
2022-10-25T00:58:21.778Z,0.70
2022-10-25T01:00:48.878Z,1.38
2022-10-25T01:03:18.030Z,1.05
2022-10-25T01:05:45.287Z,0.80
2022-10-25T01:08:12.558Z,0.88
2022-10-25T01:10:39.915Z,1.33
2022-10-25T01:13:06.633Z,0.80
2022-10-25T01:15:53.173Z,0.90
2022-10-25T01:18:36.683Z,1.23
2022-10-25T01:21:32.079Z,0.65
2022-10-25T01:24:04.685Z,0.90
2022-10-25T01:27:11.988Z,0.80
2022-10-25T01:30:03.746Z,0.70
2022-10-25T01:32:46.615Z,0.80
2022-10-25T01:35:13.444Z,0.80
2022-10-25T01:38:26.609Z,0.85
2022-10-25T01:40:59.275Z,0.65
2022-10-25T01:43:51.595Z,0.82
2022-10-25T01:46:29.117Z,0.68
2022-10-25T01:49:01.322Z,0.70
2022-10-25T01:51:29.068Z,1.15
2022-10-25T01:53:55.907Z,1.20
2022-10-25T01:57:06.468Z,0.60
2022-10-25T01:59:54.483Z,1.02
2022-10-25T02:02:40.428Z,1.08
2022-10-25T02:05:25.633Z,0.98
2022-10-25T02:08:04.568Z,1.15
2022-10-25T02:10:49.870Z,1.02
2022-10-25T02:13:32.142Z,1.02
2022-10-25T02:16:10.103Z,0.80
2022-10-25T02:18:41.531Z,1.17
2022-10-25T02:21:10.899Z,1.00
2022-10-25T02:23:37.951Z,1.35
2022-10-25T02:26:07.499Z,1.00
2022-10-25T02:28:37.661Z,1.30
2022-10-25T02:31:10.286Z,1.35
2022-10-25T02:33:37.581Z,0.93
2022-10-25T02:37:13.569Z,1.35
2022-10-25T02:39:40.279Z,1.10
2022-10-25T02:42:07.080Z,1.27
2022-10-25T02:44:33.781Z,1.20
2022-10-25T02:47:00.419Z,1.00
2022-10-25T02:49:56.422Z,1.50
2022-10-25T02:52:23.113Z,1.30
2022-10-25T02:55:19.757Z,1.60
2022-10-25T02:57:52.431Z,1.50
2022-10-25T03:00:19.194Z,1.10
2022-10-25T03:02:46.197Z,1.13
2022-10-25T03:05:13.035Z,1.63
2022-10-25T03:07:39.532Z,1.35
2022-10-25T03:10:06.845Z,1.40
2022-10-25T03:12:33.457Z,1.25
2022-10-25T03:15:00.055Z,1.08
2022-10-25T03:17:26.609Z,1.60
2022-10-25T03:19:53.242Z,1.17
2022-10-25T03:22:19.856Z,1.35
2022-10-25T03:24:51.033Z,1.40
2022-10-25T03:27:17.986Z,1.38
2022-10-25T03:30:46.172Z,1.40
2022-10-25T03:33:16.500Z,1.08
2022-10-25T03:36:37.059Z,1.10
2022-10-25T03:39:13.815Z,1.60
2022-10-25T03:41:40.502Z,1.33
2022-10-25T03:47:21.700Z,1.90
2022-10-25T03:50:37.382Z,1.60
2022-10-25T03:57:15.352Z,1.65
2022-10-25T04:20:32.330Z,1.83
2022-10-25T04:22:58.925Z,1.50
2022-10-25T04:25:27.714Z,1.95
2022-10-25T04:27:55.124Z,1.27
2022-10-25T04:30:21.784Z,1.27
2022-10-25T04:32:48.555Z,0.90
2022-10-25T04:35:15.475Z,0.85
2022-10-25T04:37:42.103Z,0.82
2022-10-25T04:40:09.370Z,1.10
2022-10-25T04:42:36.069Z,0.93
2022-10-25T04:45:02.752Z,1.05
2022-10-25T04:47:34.027Z,0.70
2022-10-25T04:50:00.605Z,0.93
2022-10-25T04:52:29.959Z,0.60
2022-10-25T04:54:56.961Z,0.60
2022-10-25T04:57:23.556Z,0.90
2022-10-25T04:59:50.170Z,0.85
2022-10-25T05:02:16.762Z,0.70
2022-10-25T05:04:43.233Z,1.63
2022-10-25T05:07:09.813Z,0.57
2022-10-25T05:09:36.500Z,0.90
2022-10-25T05:12:03.234Z,0.50
2022-10-25T05:14:29.721Z,0.60
2022-10-25T05:16:56.205Z,0.57
2022-10-25T05:19:22.719Z,0.93
2022-10-25T05:21:49.375Z,0.50
2022-10-25T05:24:16.023Z,0.65
2022-10-25T05:26:42.632Z,2.80
2022-10-25T05:29:11.464Z,1.10
2022-10-25T05:31:40.492Z,0.88
2022-10-25T05:34:07.940Z,1.15
2022-10-25T05:36:34.455Z,2.55
2022-10-25T05:39:01.561Z,2.85
2022-10-25T05:41:30.737Z,2.45
2022-10-25T05:44:00.186Z,4.38
2022-10-25T05:46:27.160Z,1.17
2022-10-25T05:48:54.100Z,1.02
2022-10-25T05:51:33.123Z,0.70
2022-10-25T05:54:03.230Z,0.80
2022-10-25T05:56:30.936Z,0.60
2022-10-25T05:58:57.580Z,0.60
2022-10-25T06:01:29.564Z,2.30
2022-10-25T06:03:56.230Z,0.63
2022-10-25T06:06:24.057Z,0.68
2022-10-25T06:08:55.279Z,0.68
2022-10-25T06:11:21.848Z,0.45
2022-10-25T06:13:48.432Z,0.80
2022-10-25T06:16:17.593Z,0.40
2022-10-25T06:18:44.559Z,0.50
2022-10-25T06:21:13.462Z,0.40
2022-10-25T06:23:40.911Z,0.80
2022-10-25T06:26:17.099Z,0.50
2022-10-25T06:28:43.713Z,0.57
2022-10-25T06:31:15.566Z,0.40
2022-10-25T06:33:42.686Z,0.50
2022-10-25T06:36:16.771Z,0.40
2022-10-25T06:38:44.737Z,0.47
2022-10-25T06:41:22.177Z,0.50
2022-10-25T06:43:49.697Z,0.38
2022-10-25T06:46:22.752Z,0.30
2022-10-25T06:48:50.450Z,0.60
2022-10-25T06:51:17.660Z,0.45
2022-10-25T06:53:44.594Z,0.40
2022-10-25T06:56:14.621Z,0.70
2022-10-25T06:58:42.244Z,0.40
2022-10-25T07:01:13.193Z,0.30
2022-10-25T07:03:40.430Z,0.70
2022-10-25T07:06:09.152Z,0.40
2022-10-25T07:08:37.684Z,0.40
2022-10-25T07:11:05.115Z,0.47
2022-10-25T07:13:33.173Z,0.40
2022-10-25T07:16:09.040Z,0.40
2022-10-25T07:18:36.354Z,0.38
2022-10-25T07:21:05.399Z,0.40
2022-10-25T07:23:32.463Z,0.30
2022-10-25T07:25:59.702Z,0.30
2022-10-25T07:28:27.316Z,0.85
2022-10-25T07:30:55.048Z,0.30
2022-10-25T07:33:21.589Z,0.50
2022-10-25T07:36:05.944Z,0.30
2022-10-25T07:38:36.799Z,0.40
2022-10-25T07:41:03.654Z,0.30
2022-10-25T07:43:30.192Z,0.25
2022-10-25T07:45:57.001Z,0.40
2022-10-25T07:48:24.026Z,0.30
2022-10-25T07:50:50.596Z,0.20
2022-10-25T07:53:17.627Z,0.52
2022-10-25T07:55:50.486Z,0.20
2022-10-25T07:58:17.196Z,0.20
2022-10-25T08:00:43.715Z,0.30
2022-10-25T08:03:10.478Z,0.28
2022-10-25T08:05:37.171Z,0.30
2022-10-25T08:08:05.400Z,0.28
2022-10-25T08:10:31.995Z,0.20
2022-10-25T08:12:58.626Z,0.30
2022-10-25T08:15:25.129Z,0.40
2022-10-25T08:18:02.035Z,0.28
2022-10-25T08:20:49.670Z,0.30
2022-10-25T08:23:15.827Z,0.47
2022-10-25T08:25:42.511Z,0.20
2022-10-25T08:28:09.218Z,0.30
2022-10-25T08:30:36.006Z,0.20
2022-10-25T08:33:02.674Z,0.20
2022-10-25T08:35:29.398Z,0.20
2022-10-25T08:37:55.830Z,0.20
2022-10-25T08:40:29.821Z,0.60
2022-10-25T08:43:24.326Z,0.20
2022-10-25T08:46:13.925Z,0.20
2022-10-25T08:48:46.583Z,0.20
2022-10-25T08:51:29.633Z,0.20
2022-10-25T08:54:01.078Z,0.10
2022-10-25T08:56:29.963Z,0.20
2022-10-25T08:59:01.088Z,0.20
2022-10-25T09:01:44.871Z,0.40
2022-10-25T09:04:11.677Z,0.30
2022-10-25T09:06:56.968Z,0.17
2022-10-25T09:09:42.339Z,0.20
2022-10-25T09:12:32.530Z,0.28
2022-10-25T09:15:16.729Z,0.20
2022-10-25T09:17:54.091Z,0.22
2022-10-25T09:20:25.953Z,0.20
2022-10-25T09:23:02.403Z,0.20
2022-10-25T09:25:43.465Z,0.20
2022-10-25T09:28:45.263Z,0.20
2022-10-25T09:31:16.983Z,0.10
2022-10-25T09:33:47.434Z,0.45
2022-10-25T09:36:15.287Z,0.13
2022-10-25T09:38:47.326Z,0.30
2022-10-25T09:41:34.076Z,0.25
2022-10-25T09:44:10.939Z,0.20
2022-10-25T09:46:42.559Z,0.30
2022-10-25T09:49:27.567Z,0.20
2022-10-25T09:52:02.433Z,0.20
2022-10-25T09:54:41.955Z,0.35
2022-10-25T09:57:08.671Z,0.15
2022-10-25T09:59:35.310Z,0.20
2022-10-25T10:02:02.043Z,0.20
2022-10-25T10:04:38.644Z,0.57
2022-10-25T10:07:16.388Z,0.20
2022-10-25T10:09:46.211Z,0.20
2022-10-25T10:12:22.774Z,0.20
2022-10-25T10:14:58.736Z,0.20
2022-10-25T10:17:27.133Z,0.10
2022-10-25T10:20:15.906Z,0.13
2022-10-25T10:25:28.035Z,0.30
2022-10-25T10:27:57.702Z,0.20
2022-10-25T10:30:31.104Z,0.20
2022-10-25T10:33:01.351Z,0.20
2022-10-25T10:35:34.670Z,0.20
2022-10-25T10:38:29.938Z,0.20
2022-10-25T10:41:26.670Z,0.35
2022-10-25T10:44:25.670Z,0.20
2022-10-25T10:46:54.808Z,0.20
2022-10-25T10:49:30.534Z,0.20
2022-10-25T10:51:57.116Z,0.20
2022-10-25T10:54:26.746Z,0.40
2022-10-25T10:56:59.495Z,0.20
2022-10-25T10:59:49.421Z,0.20
2022-10-25T11:02:33.341Z,0.30
2022-10-25T11:05:00.294Z,0.60
2022-10-25T11:07:30.772Z,0.20
2022-10-25T11:10:15.689Z,0.60
2022-10-25T11:12:43.583Z,0.20
2022-10-25T11:15:13.852Z,0.20
2022-10-25T11:17:49.928Z,0.30
2022-10-25T11:20:22.838Z,0.20
2022-10-25T11:23:05.238Z,0.13
2022-10-25T11:25:32.008Z,0.30
2022-10-25T11:27:58.521Z,0.20
2022-10-25T11:30:31.415Z,0.20
2022-10-25T11:33:32.461Z,0.25
2022-10-25T11:36:02.261Z,0.22
2022-10-25T11:38:44.380Z,0.20
2022-10-25T11:41:29.160Z,0.55
2022-10-25T11:44:07.933Z,0.20
2022-10-25T11:47:00.517Z,0.22
2022-10-25T11:49:40.106Z,0.25
2022-10-25T11:52:06.673Z,0.10
2022-10-25T11:54:48.256Z,0.20
2022-10-25T11:57:40.279Z,0.22
2022-10-25T12:00:19.029Z,0.43
2022-10-25T12:02:57.729Z,0.20
2022-10-25T12:05:51.513Z,0.45
2022-10-25T12:08:46.983Z,0.20
2022-10-25T12:11:22.264Z,0.20
2022-10-25T12:13:57.470Z,0.20
2022-10-25T12:16:25.561Z,0.20
2022-10-25T12:19:02.544Z,0.20
2022-10-25T12:21:38.398Z,0.20
2022-10-25T12:24:11.605Z,0.20
2022-10-25T12:26:40.823Z,0.13
2022-10-25T12:29:14.948Z,0.28
2022-10-25T12:31:49.006Z,0.10
2022-10-25T12:34:39.950Z,0.10
2022-10-25T12:37:14.906Z,0.50
2022-10-25T12:39:44.483Z,0.10
2022-10-25T12:42:24.988Z,0.20
2022-10-25T12:45:10.847Z,0.20
2022-10-25T12:48:34.452Z,0.10
2022-10-25T12:51:36.079Z,0.20
2022-10-25T12:54:02.572Z,0.10
2022-10-25T12:56:59.686Z,0.10
2022-10-25T12:59:44.420Z,0.20
2022-10-25T13:02:40.228Z,0.30
2022-10-25T13:05:25.609Z,0.20
2022-10-25T13:07:57.165Z,0.10
2022-10-25T13:13:05.562Z,0.28
2022-10-25T13:15:50.863Z,0.30
2022-10-25T13:18:32.763Z,0.50
2022-10-25T13:21:05.381Z,0.20
2022-10-25T13:23:49.413Z,0.30
2022-10-25T13:26:21.141Z,0.40
2022-10-25T13:28:50.546Z,0.57
2022-10-25T13:31:35.649Z,0.30
2022-10-25T13:34:29.685Z,0.20
2022-10-25T13:37:01.329Z,0.20
2022-10-25T13:40:02.902Z,0.30
2022-10-25T13:42:33.978Z,0.30
2022-10-25T13:45:03.583Z,0.20
2022-10-25T13:47:39.248Z,0.20
2022-10-25T13:50:17.825Z,0.30
2022-10-25T13:52:58.920Z,0.20
2022-10-25T13:55:34.129Z,0.40
2022-10-25T13:58:01.545Z,0.50
2022-10-25T14:00:35.621Z,0.50
2022-10-25T14:03:08.465Z,0.40
2022-10-25T14:06:22.815Z,0.40
2022-10-25T14:08:55.985Z,0.30
2022-10-25T14:11:37.899Z,0.40
2022-10-25T14:14:24.094Z,0.30
2022-10-25T14:17:03.991Z,1.17
2022-10-25T14:19:38.231Z,0.50
2022-10-25T14:22:13.744Z,0.50
2022-10-25T14:24:42.302Z,0.40
2022-10-25T14:27:35.751Z,0.40
2022-10-25T14:30:14.111Z,0.40
2022-10-25T14:32:50.154Z,0.43
2022-10-25T14:35:17.223Z,0.75
2022-10-25T14:37:43.897Z,0.40
2022-10-25T14:40:23.007Z,0.55
2022-10-25T14:42:50.528Z,0.30
2022-10-25T14:45:26.413Z,0.88
2022-10-25T14:47:53.325Z,0.50
2022-10-25T14:50:23.101Z,0.57
2022-10-25T14:52:51.471Z,0.40
2022-10-25T14:55:27.410Z,0.30
2022-10-25T14:57:54.407Z,0.50
2022-10-25T15:00:23.472Z,0.60
2022-10-25T15:02:55.836Z,0.80
2022-10-25T15:05:25.116Z,0.70
2022-10-25T15:07:56.998Z,0.80
2022-10-25T15:10:35.626Z,0.47
2022-10-25T15:13:20.778Z,0.63
2022-10-25T15:15:50.059Z,0.60
2022-10-25T15:18:34.608Z,0.93
2022-10-25T15:21:17.547Z,0.73
2022-10-25T15:24:04.992Z,0.60
2022-10-25T15:26:34.694Z,0.55
2022-10-25T15:29:04.713Z,0.65
2022-10-25T15:31:32.418Z,0.73
2022-10-25T15:34:04.672Z,0.73
2022-10-25T15:36:33.205Z,1.13
2022-10-25T15:39:27.183Z,0.80
2022-10-25T15:41:53.977Z,0.90
2022-10-25T15:44:21.072Z,0.60
2022-10-25T15:46:48.902Z,0.88
2022-10-25T15:49:16.026Z,1.20
2022-10-25T15:51:44.465Z,1.40
2022-10-25T15:54:20.434Z,1.40
2022-10-25T15:56:48.407Z,1.50
2022-10-25T16:01:49.742Z,1.42
2022-10-25T16:04:18.393Z,1.35
2022-10-25T16:06:46.504Z,1.80
2022-10-25T16:09:13.156Z,1.80
2022-10-25T16:11:44.866Z,1.55
2022-10-25T16:14:22.926Z,1.60
2022-10-25T16:16:49.897Z,1.70
2022-10-25T16:19:18.557Z,1.60
2022-10-25T16:21:45.736Z,2.13
2022-10-25T16:24:13.240Z,1.83
2022-10-25T16:26:46.136Z,2.10
2022-10-25T16:29:18.032Z,2.20
2022-10-25T16:31:44.579Z,1.90
2022-10-25T16:34:11.939Z,2.08
2022-10-25T16:36:38.614Z,2.10
2022-10-25T16:39:06.348Z,1.90
2022-10-25T16:41:33.499Z,1.60
2022-10-25T16:44:00.252Z,1.73
2022-10-25T16:46:27.086Z,1.60
2022-10-25T16:48:55.846Z,1.60
2022-10-25T16:51:28.764Z,1.48
2022-10-25T16:53:55.476Z,1.50
2022-10-25T16:56:22.127Z,2.10
2022-10-25T16:58:48.710Z,2.00
2022-10-25T17:01:19.232Z,1.80
2022-10-25T17:06:36.351Z,2.42
2022-10-25T17:09:04.184Z,2.70
2022-10-25T17:11:30.770Z,2.63
2022-10-25T17:13:57.386Z,2.60
2022-10-25T17:16:24.278Z,3.00
2022-10-25T17:18:50.858Z,2.97
2022-10-25T17:21:18.030Z,3.10
2022-10-25T17:23:44.725Z,3.30
2022-10-25T17:26:16.611Z,3.40
2022-10-25T17:28:44.482Z,3.58
2022-10-25T17:31:13.405Z,3.88
2022-10-25T17:33:41.152Z,3.20
2022-10-25T17:36:18.763Z,3.00
2022-10-25T17:38:45.789Z,2.72
2022-10-25T17:41:13.623Z,2.80
2022-10-25T17:43:41.741Z,4.18
2022-10-25T17:46:14.770Z,5.18
2022-10-25T17:48:41.454Z,4.68
2022-10-25T17:51:12.566Z,4.25
2022-10-25T17:53:39.944Z,3.80
2022-10-25T17:56:33.511Z,3.15
2022-10-25T17:59:03.173Z,3.42
2022-10-25T18:01:32.681Z,3.00
2022-10-25T18:03:59.412Z,2.40
2022-10-25T18:06:26.454Z,2.40
2022-10-25T18:09:04.396Z,2.58
2022-10-25T18:11:31.756Z,2.40
2022-10-25T18:14:02.652Z,2.10
2022-10-25T18:16:31.175Z,2.13
2022-10-25T18:19:00.968Z,2.78
2022-10-25T18:21:28.176Z,2.38
2022-10-25T18:23:56.268Z,2.53
2022-10-25T18:30:17.636Z,2.63
2022-10-25T18:32:44.257Z,2.50
2022-10-25T18:35:47.023Z,2.22
2022-10-25T18:38:38.244Z,2.20
2022-10-25T18:41:37.970Z,3.20
2022-10-25T19:04:22.933Z,2.08
2022-10-25T19:06:52.845Z,2.80
2022-10-25T19:12:46.033Z,2.15
2022-10-25T19:19:05.204Z,2.35
2022-10-25T21:08:14.304Z,1.77
